Legal, Canada
Current Conditions -  °F | °C
As of 2:00 PM on Thursday 27 Nov 2014 (Local Time) from CYED Reporting Station
Light Snow Light Snow  
Wind Chill: -14°   Ceiling: 400
Heat Index:   Visibility: 0.37mi
Dew Point:   Wind: 16mph
Humidity: 85%   Direction: 50°NE
Pressure: 30"   Gusts: NA
Location:  53.95°N, 113.63°W
Report Text: CYED 272100Z AUTO 05014KT 3/8SM -SN VV004 M15/M17 A3000 RMKSLP210
Loading
Personal Weather Stations






























Interactive Weather Map New forecast layout! Learn more

10-Day Weather Forecast

Advertisements
Track Severe Weather on mobile